sensor_id;sensor_type;location;lat;lon;timestamp;P1;durP1;ratioP1;P2;durP2;ratioP2
38034;SDS011;23841;48.524;1.342;2023-04-30T00:00:48;10.27;;;7.07;;
38034;SDS011;23841;48.524;1.342;2023-04-30T00:03:13;10.25;;;7.40;;
38034;SDS011;23841;48.524;1.342;2023-04-30T00:05:39;10.65;;;7.05;;
38034;SDS011;23841;48.524;1.342;2023-04-30T00:08:04;9.93;;;7.00;;
38034;SDS011;23841;48.524;1.342;2023-04-30T00:10:30;11.27;;;7.10;;
38034;SDS011;23841;48.524;1.342;2023-04-30T00:12:55;10.45;;;7.07;;
38034;SDS011;23841;48.524;1.342;2023-04-30T00:15:21;9.77;;;7.57;;
38034;SDS011;23841;48.524;1.342;2023-04-30T00:17:46;9.50;;;6.78;;
38034;SDS011;23841;48.524;1.342;2023-04-30T00:20:12;11.23;;;7.40;;
38034;SDS011;23841;48.524;1.342;2023-04-30T00:22:37;10.02;;;6.95;;
38034;SDS011;23841;48.524;1.342;2023-04-30T00:25:03;8.75;;;6.50;;
38034;SDS011;23841;48.524;1.342;2023-04-30T00:27:29;9.63;;;7.43;;
38034;SDS011;23841;48.524;1.342;2023-04-30T00:29:59;11.00;;;7.30;;
38034;SDS011;23841;48.524;1.342;2023-04-30T00:32:25;10.38;;;6.85;;
38034;SDS011;23841;48.524;1.342;2023-04-30T00:34:52;11.52;;;8.05;;
38034;SDS011;23841;48.524;1.342;2023-04-30T00:37:18;11.07;;;7.15;;
38034;SDS011;23841;48.524;1.342;2023-04-30T00:39:44;10.73;;;7.22;;
38034;SDS011;23841;48.524;1.342;2023-04-30T00:42:09;9.93;;;6.60;;
38034;SDS011;23841;48.524;1.342;2023-04-30T00:44:35;10.80;;;7.88;;
38034;SDS011;23841;48.524;1.342;2023-04-30T00:47:00;10.15;;;6.57;;
38034;SDS011;23841;48.524;1.342;2023-04-30T00:49:26;11.27;;;6.88;;
38034;SDS011;23841;48.524;1.342;2023-04-30T00:51:52;10.32;;;7.32;;
38034;SDS011;23841;48.524;1.342;2023-04-30T00:54:19;10.35;;;7.72;;
38034;SDS011;23841;48.524;1.342;2023-04-30T00:56:45;10.18;;;7.55;;
38034;SDS011;23841;48.524;1.342;2023-04-30T00:59:11;9.80;;;7.10;;
38034;SDS011;23841;48.524;1.342;2023-04-30T01:01:37;11.95;;;7.53;;
38034;SDS011;23841;48.524;1.342;2023-04-30T01:04:03;12.60;;;7.63;;
38034;SDS011;23841;48.524;1.342;2023-04-30T01:06:29;11.30;;;7.53;;
38034;SDS011;23841;48.524;1.342;2023-04-30T01:08:54;10.20;;;7.55;;
38034;SDS011;23841;48.524;1.342;2023-04-30T01:16:35;9.77;;;6.85;;
38034;SDS011;23841;48.524;1.342;2023-04-30T01:22:04;9.40;;;6.57;;
38034;SDS011;23841;48.524;1.342;2023-04-30T01:24:52;11.18;;;6.78;;
38034;SDS011;23841;48.524;1.342;2023-04-30T01:27:31;13.60;;;7.35;;
38034;SDS011;23841;48.524;1.342;2023-04-30T01:30:16;12.90;;;7.88;;
38034;SDS011;23841;48.524;1.342;2023-04-30T01:32:43;10.63;;;6.93;;
38034;SDS011;23841;48.524;1.342;2023-04-30T01:35:08;11.05;;;8.07;;
38034;SDS011;23841;48.524;1.342;2023-04-30T01:48:42;12.30;;;8.38;;
38034;SDS011;23841;48.524;1.342;2023-04-30T01:51:19;13.35;;;8.68;;
38034;SDS011;23841;48.524;1.342;2023-04-30T01:53:54;12.85;;;9.05;;
38034;SDS011;23841;48.524;1.342;2023-04-30T01:56:31;13.05;;;8.00;;
38034;SDS011;23841;48.524;1.342;2023-04-30T01:59:05;12.32;;;8.02;;
38034;SDS011;23841;48.524;1.342;2023-04-30T02:01:32;11.88;;;7.95;;
38034;SDS011;23841;48.524;1.342;2023-04-30T02:03:57;11.85;;;7.10;;
38034;SDS011;23841;48.524;1.342;2023-04-30T02:06:24;12.65;;;8.45;;
38034;SDS011;23841;48.524;1.342;2023-04-30T02:08:54;11.40;;;8.05;;
38034;SDS011;23841;48.524;1.342;2023-04-30T02:11:20;12.70;;;7.53;;
38034;SDS011;23841;48.524;1.342;2023-04-30T02:13:48;10.20;;;7.10;;
38034;SDS011;23841;48.524;1.342;2023-04-30T02:16:14;13.52;;;7.95;;
38034;SDS011;23841;48.524;1.342;2023-04-30T02:18:39;12.75;;;7.68;;
38034;SDS011;23841;48.524;1.342;2023-04-30T02:21:05;9.98;;;7.15;;
38034;SDS011;23841;48.524;1.342;2023-04-30T02:23:30;13.00;;;8.07;;
38034;SDS011;23841;48.524;1.342;2023-04-30T02:25:56;10.93;;;7.78;;
38034;SDS011;23841;48.524;1.342;2023-04-30T02:28:21;11.90;;;7.22;;
38034;SDS011;23841;48.524;1.342;2023-04-30T02:30:46;10.75;;;6.63;;
38034;SDS011;23841;48.524;1.342;2023-04-30T02:33:12;9.32;;;6.88;;
38034;SDS011;23841;48.524;1.342;2023-04-30T02:35:39;10.07;;;6.70;;
38034;SDS011;23841;48.524;1.342;2023-04-30T02:38:05;10.80;;;6.82;;
38034;SDS011;23841;48.524;1.342;2023-04-30T02:40:31;11.35;;;6.85;;
38034;SDS011;23841;48.524;1.342;2023-04-30T02:42:56;12.50;;;7.90;;
38034;SDS011;23841;48.524;1.342;2023-04-30T02:45:21;11.50;;;7.80;;
38034;SDS011;23841;48.524;1.342;2023-04-30T02:47:47;11.57;;;7.72;;
38034;SDS011;23841;48.524;1.342;2023-04-30T02:50:13;10.45;;;6.90;;
38034;SDS011;23841;48.524;1.342;2023-04-30T02:52:38;10.43;;;7.25;;
38034;SDS011;23841;48.524;1.342;2023-04-30T02:55:04;10.40;;;6.55;;
38034;SDS011;23841;48.524;1.342;2023-04-30T02:57:30;12.48;;;7.10;;
38034;SDS011;23841;48.524;1.342;2023-04-30T02:59:55;12.10;;;7.18;;
38034;SDS011;23841;48.524;1.342;2023-04-30T03:02:21;10.43;;;6.88;;
38034;SDS011;23841;48.524;1.342;2023-04-30T03:04:47;9.65;;;6.78;;
38034;SDS011;23841;48.524;1.342;2023-04-30T03:07:13;11.65;;;6.55;;
38034;SDS011;23841;48.524;1.342;2023-04-30T03:09:39;10.02;;;6.82;;
38034;SDS011;23841;48.524;1.342;2023-04-30T03:12:04;12.02;;;6.95;;
38034;SDS011;23841;48.524;1.342;2023-04-30T03:14:30;12.48;;;7.80;;
38034;SDS011;23841;48.524;1.342;2023-04-30T03:16:55;10.10;;;7.10;;
38034;SDS011;23841;48.524;1.342;2023-04-30T03:19:21;12.52;;;7.47;;
38034;SDS011;23841;48.524;1.342;2023-04-30T03:21:49;11.63;;;7.40;;
38034;SDS011;23841;48.524;1.342;2023-04-30T03:24:16;9.95;;;7.03;;
38034;SDS011;23841;48.524;1.342;2023-04-30T03:26:41;11.27;;;7.40;;
38034;SDS011;23841;48.524;1.342;2023-04-30T03:29:07;10.63;;;7.57;;
38034;SDS011;23841;48.524;1.342;2023-04-30T03:31:32;10.93;;;7.38;;
38034;SDS011;23841;48.524;1.342;2023-04-30T03:33:58;11.38;;;7.63;;
38034;SDS011;23841;48.524;1.342;2023-04-30T03:36:23;11.90;;;7.00;;
38034;SDS011;23841;48.524;1.342;2023-04-30T03:38:49;10.27;;;6.65;;
38034;SDS011;23841;48.524;1.342;2023-04-30T03:41:14;14.15;;;7.82;;
38034;SDS011;23841;48.524;1.342;2023-04-30T03:43:39;10.60;;;6.50;;
38034;SDS011;23841;48.524;1.342;2023-04-30T03:46:05;12.27;;;7.10;;
38034;SDS011;23841;48.524;1.342;2023-04-30T03:48:30;11.40;;;7.22;;
38034;SDS011;23841;48.524;1.342;2023-04-30T03:50:56;11.75;;;7.32;;
38034;SDS011;23841;48.524;1.342;2023-04-30T03:53:21;11.43;;;7.18;;
38034;SDS011;23841;48.524;1.342;2023-04-30T03:55:47;10.35;;;6.45;;
38034;SDS011;23841;48.524;1.342;2023-04-30T03:58:14;11.07;;;6.90;;
38034;SDS011;23841;48.524;1.342;2023-04-30T04:00:39;11.18;;;7.32;;
38034;SDS011;23841;48.524;1.342;2023-04-30T04:03:07;10.15;;;6.55;;
38034;SDS011;23841;48.524;1.342;2023-04-30T04:05:32;10.93;;;8.02;;
38034;SDS011;23841;48.524;1.342;2023-04-30T04:07:57;11.85;;;7.55;;
38034;SDS011;23841;48.524;1.342;2023-04-30T04:10:23;10.85;;;7.22;;
38034;SDS011;23841;48.524;1.342;2023-04-30T04:12:48;10.63;;;6.85;;
38034;SDS011;23841;48.524;1.342;2023-04-30T04:15:14;11.32;;;7.47;;
38034;SDS011;23841;48.524;1.342;2023-04-30T04:17:40;11.73;;;7.55;;
38034;SDS011;23841;48.524;1.342;2023-04-30T04:20:05;10.90;;;7.05;;
38034;SDS011;23841;48.524;1.342;2023-04-30T04:22:31;11.35;;;7.65;;
38034;SDS011;23841;48.524;1.342;2023-04-30T04:24:57;9.43;;;6.65;;
38034;SDS011;23841;48.524;1.342;2023-04-30T04:27:22;9.45;;;6.72;;
38034;SDS011;23841;48.524;1.342;2023-04-30T04:29:47;12.15;;;7.55;;
38034;SDS011;23841;48.524;1.342;2023-04-30T04:32:13;11.57;;;6.90;;
38034;SDS011;23841;48.524;1.342;2023-04-30T04:34:39;15.30;;;8.20;;
38034;SDS011;23841;48.524;1.342;2023-04-30T04:37:05;11.50;;;7.85;;
38034;SDS011;23841;48.524;1.342;2023-04-30T04:39:30;10.60;;;7.53;;
38034;SDS011;23841;48.524;1.342;2023-04-30T04:41:55;12.23;;;7.80;;
38034;SDS011;23841;48.524;1.342;2023-04-30T04:44:22;11.30;;;7.25;;
38034;SDS011;23841;48.524;1.342;2023-04-30T04:46:47;13.27;;;8.43;;
38034;SDS011;23841;48.524;1.342;2023-04-30T04:49:13;10.77;;;6.80;;
38034;SDS011;23841;48.524;1.342;2023-04-30T04:51:39;11.30;;;7.30;;
38034;SDS011;23841;48.524;1.342;2023-04-30T04:54:05;10.38;;;6.40;;
38034;SDS011;23841;48.524;1.342;2023-04-30T04:56:30;10.85;;;7.13;;
38034;SDS011;23841;48.524;1.342;2023-04-30T04:58:57;10.27;;;7.10;;
38034;SDS011;23841;48.524;1.342;2023-04-30T05:01:23;12.77;;;8.38;;
38034;SDS011;23841;48.524;1.342;2023-04-30T05:03:48;12.52;;;7.72;;
38034;SDS011;23841;48.524;1.342;2023-04-30T05:06:14;10.88;;;7.03;;
38034;SDS011;23841;48.524;1.342;2023-04-30T05:08:39;10.52;;;7.47;;
38034;SDS011;23841;48.524;1.342;2023-04-30T05:11:05;12.43;;;7.28;;
38034;SDS011;23841;48.524;1.342;2023-04-30T05:13:33;11.88;;;7.65;;
38034;SDS011;23841;48.524;1.342;2023-04-30T05:15:58;12.38;;;7.80;;
38034;SDS011;23841;48.524;1.342;2023-04-30T05:18:24;14.68;;;7.72;;
38034;SDS011;23841;48.524;1.342;2023-04-30T05:20:50;12.18;;;7.18;;
38034;SDS011;23841;48.524;1.342;2023-04-30T05:23:15;11.63;;;8.05;;
38034;SDS011;23841;48.524;1.342;2023-04-30T05:25:40;12.63;;;7.20;;
38034;SDS011;23841;48.524;1.342;2023-04-30T05:28:06;10.40;;;7.15;;
38034;SDS011;23841;48.524;1.342;2023-04-30T05:30:31;11.73;;;7.18;;
38034;SDS011;23841;48.524;1.342;2023-04-30T05:32:57;9.95;;;6.53;;
38034;SDS011;23841;48.524;1.342;2023-04-30T05:35:23;10.23;;;7.13;;
38034;SDS011;23841;48.524;1.342;2023-04-30T05:37:49;10.80;;;7.03;;
38034;SDS011;23841;48.524;1.342;2023-04-30T05:40:14;11.45;;;7.30;;
38034;SDS011;23841;48.524;1.342;2023-04-30T05:42:41;13.35;;;7.35;;
38034;SDS011;23841;48.524;1.342;2023-04-30T05:45:08;11.23;;;7.05;;
38034;SDS011;23841;48.524;1.342;2023-04-30T05:47:38;11.15;;;7.10;;
38034;SDS011;23841;48.524;1.342;2023-04-30T05:50:04;10.65;;;7.25;;
38034;SDS011;23841;48.524;1.342;2023-04-30T05:52:30;12.38;;;7.38;;
38034;SDS011;23841;48.524;1.342;2023-04-30T05:54:56;11.95;;;7.60;;
38034;SDS011;23841;48.524;1.342;2023-04-30T05:57:22;10.93;;;6.70;;
38034;SDS011;23841;48.524;1.342;2023-04-30T05:59:47;10.73;;;7.10;;
38034;SDS011;23841;48.524;1.342;2023-04-30T06:02:13;9.93;;;7.40;;
38034;SDS011;23841;48.524;1.342;2023-04-30T06:04:38;12.23;;;7.38;;
38034;SDS011;23841;48.524;1.342;2023-04-30T06:07:04;11.20;;;7.57;;
38034;SDS011;23841;48.524;1.342;2023-04-30T06:09:29;12.63;;;8.13;;
38034;SDS011;23841;48.524;1.342;2023-04-30T06:11:55;12.88;;;8.10;;
38034;SDS011;23841;48.524;1.342;2023-04-30T06:14:20;13.57;;;7.90;;
38034;SDS011;23841;48.524;1.342;2023-04-30T06:16:46;12.50;;;7.57;;
38034;SDS011;23841;48.524;1.342;2023-04-30T06:19:13;11.93;;;7.93;;
38034;SDS011;23841;48.524;1.342;2023-04-30T06:21:38;11.57;;;7.90;;
38034;SDS011;23841;48.524;1.342;2023-04-30T06:24:04;13.50;;;8.38;;
38034;SDS011;23841;48.524;1.342;2023-04-30T06:26:30;13.35;;;7.32;;
38034;SDS011;23841;48.524;1.342;2023-04-30T06:28:56;12.77;;;7.90;;
38034;SDS011;23841;48.524;1.342;2023-04-30T06:31:22;12.15;;;7.75;;
38034;SDS011;23841;48.524;1.342;2023-04-30T06:33:47;12.95;;;7.85;;
38034;SDS011;23841;48.524;1.342;2023-04-30T06:36:14;13.23;;;8.27;;
38034;SDS011;23841;48.524;1.342;2023-04-30T06:38:39;12.68;;;8.27;;
38034;SDS011;23841;48.524;1.342;2023-04-30T06:41:06;12.25;;;8.10;;
38034;SDS011;23841;48.524;1.342;2023-04-30T06:43:31;11.93;;;8.32;;
38034;SDS011;23841;48.524;1.342;2023-04-30T06:45:57;12.05;;;7.70;;
38034;SDS011;23841;48.524;1.342;2023-04-30T06:48:22;12.18;;;7.47;;
38034;SDS011;23841;48.524;1.342;2023-04-30T06:50:48;11.57;;;8.05;;
38034;SDS011;23841;48.524;1.342;2023-04-30T06:53:13;12.02;;;7.47;;
38034;SDS011;23841;48.524;1.342;2023-04-30T06:55:43;12.93;;;7.70;;
38034;SDS011;23841;48.524;1.342;2023-04-30T06:58:10;11.38;;;7.45;;
38034;SDS011;23841;48.524;1.342;2023-04-30T07:00:35;13.50;;;8.60;;
38034;SDS011;23841;48.524;1.342;2023-04-30T07:03:01;13.95;;;8.60;;
38034;SDS011;23841;48.524;1.342;2023-04-30T07:05:28;10.93;;;7.03;;
38034;SDS011;23841;48.524;1.342;2023-04-30T07:07:55;11.05;;;7.55;;
38034;SDS011;23841;48.524;1.342;2023-04-30T07:10:21;13.85;;;8.23;;
38034;SDS011;23841;48.524;1.342;2023-04-30T07:12:47;10.30;;;7.03;;
38034;SDS011;23841;48.524;1.342;2023-04-30T07:15:12;11.85;;;7.53;;
38034;SDS011;23841;48.524;1.342;2023-04-30T07:17:38;12.23;;;7.32;;
38034;SDS011;23841;48.524;1.342;2023-04-30T07:20:06;12.68;;;7.75;;
38034;SDS011;23841;48.524;1.342;2023-04-30T07:22:32;10.07;;;6.57;;
38034;SDS011;23841;48.524;1.342;2023-04-30T07:24:58;9.40;;;7.00;;
38034;SDS011;23841;48.524;1.342;2023-04-30T07:27:25;10.35;;;7.00;;
38034;SDS011;23841;48.524;1.342;2023-04-30T07:29:52;11.07;;;7.03;;
38034;SDS011;23841;48.524;1.342;2023-04-30T07:32:18;11.27;;;7.25;;
38034;SDS011;23841;48.524;1.342;2023-04-30T07:34:44;11.88;;;6.85;;
38034;SDS011;23841;48.524;1.342;2023-04-30T07:37:09;12.95;;;7.60;;
38034;SDS011;23841;48.524;1.342;2023-04-30T07:39:35;10.68;;;6.78;;
38034;SDS011;23841;48.524;1.342;2023-04-30T07:42:01;11.68;;;6.68;;
38034;SDS011;23841;48.524;1.342;2023-04-30T07:44:28;11.65;;;6.88;;
38034;SDS011;23841;48.524;1.342;2023-04-30T07:46:54;10.88;;;7.22;;
38034;SDS011;23841;48.524;1.342;2023-04-30T07:49:19;10.18;;;6.18;;
38034;SDS011;23841;48.524;1.342;2023-04-30T07:51:45;11.43;;;6.60;;
38034;SDS011;23841;48.524;1.342;2023-04-30T07:54:11;9.65;;;6.35;;
38034;SDS011;23841;48.524;1.342;2023-04-30T07:56:36;9.52;;;6.25;;
38034;SDS011;23841;48.524;1.342;2023-04-30T07:59:02;11.40;;;6.72;;
38034;SDS011;23841;48.524;1.342;2023-04-30T08:01:27;9.25;;;6.22;;
38034;SDS011;23841;48.524;1.342;2023-04-30T08:03:53;10.93;;;6.97;;
38034;SDS011;23841;48.524;1.342;2023-04-30T08:06:18;9.15;;;6.75;;
38034;SDS011;23841;48.524;1.342;2023-04-30T08:08:44;10.30;;;6.38;;
38034;SDS011;23841;48.524;1.342;2023-04-30T08:11:10;10.23;;;6.82;;
38034;SDS011;23841;48.524;1.342;2023-04-30T08:13:36;11.95;;;7.10;;
38034;SDS011;23841;48.524;1.342;2023-04-30T08:16:01;10.05;;;6.88;;
38034;SDS011;23841;48.524;1.342;2023-04-30T08:18:27;10.15;;;7.40;;
38034;SDS011;23841;48.524;1.342;2023-04-30T08:20:53;11.32;;;7.22;;
38034;SDS011;23841;48.524;1.342;2023-04-30T08:23:18;9.48;;;6.53;;
38034;SDS011;23841;48.524;1.342;2023-04-30T08:25:44;10.30;;;6.30;;
38034;SDS011;23841;48.524;1.342;2023-04-30T08:28:09;12.32;;;7.20;;
38034;SDS011;23841;48.524;1.342;2023-04-30T08:30:35;9.20;;;6.40;;
38034;SDS011;23841;48.524;1.342;2023-04-30T08:33:00;13.07;;;7.75;;
38034;SDS011;23841;48.524;1.342;2023-04-30T08:35:25;9.43;;;6.72;;
38034;SDS011;23841;48.524;1.342;2023-04-30T08:37:53;11.90;;;7.95;;
38034;SDS011;23841;48.524;1.342;2023-04-30T08:40:19;10.45;;;6.97;;
38034;SDS011;23841;48.524;1.342;2023-04-30T08:42:45;10.55;;;6.72;;
38034;SDS011;23841;48.524;1.342;2023-04-30T08:45:17;11.55;;;7.00;;
38034;SDS011;23841;48.524;1.342;2023-04-30T08:47:44;10.68;;;6.10;;
38034;SDS011;23841;48.524;1.342;2023-04-30T08:50:09;10.27;;;6.45;;
38034;SDS011;23841;48.524;1.342;2023-04-30T08:52:36;9.48;;;6.43;;
38034;SDS011;23841;48.524;1.342;2023-04-30T08:55:02;9.45;;;6.35;;
38034;SDS011;23841;48.524;1.342;2023-04-30T08:57:31;8.32;;;5.93;;
38034;SDS011;23841;48.524;1.342;2023-04-30T08:59:57;9.82;;;5.72;;
38034;SDS011;23841;48.524;1.342;2023-04-30T09:02:22;9.73;;;6.00;;
38034;SDS011;23841;48.524;1.342;2023-04-30T09:04:48;9.95;;;7.35;;
38034;SDS011;23841;48.524;1.342;2023-04-30T09:07:13;10.73;;;5.80;;
38034;SDS011;23841;48.524;1.342;2023-04-30T09:09:40;9.50;;;6.40;;
38034;SDS011;23841;48.524;1.342;2023-04-30T09:12:18;8.40;;;5.90;;
38034;SDS011;23841;48.524;1.342;2023-04-30T09:17:31;8.68;;;5.55;;
38034;SDS011;23841;48.524;1.342;2023-04-30T09:20:08;10.07;;;5.78;;
38034;SDS011;23841;48.524;1.342;2023-04-30T09:22:35;8.60;;;5.55;;
38034;SDS011;23841;48.524;1.342;2023-04-30T09:25:02;6.78;;;4.70;;
38034;SDS011;23841;48.524;1.342;2023-04-30T09:27:28;8.38;;;5.35;;
38034;SDS011;23841;48.524;1.342;2023-04-30T09:29:53;6.80;;;4.90;;
38034;SDS011;23841;48.524;1.342;2023-04-30T09:32:18;7.43;;;4.63;;
38034;SDS011;23841;48.524;1.342;2023-04-30T09:34:44;8.98;;;6.18;;
38034;SDS011;23841;48.524;1.342;2023-04-30T09:37:10;9.60;;;5.20;;
38034;SDS011;23841;48.524;1.342;2023-04-30T09:39:48;7.30;;;4.68;;
38034;SDS011;23841;48.524;1.342;2023-04-30T09:42:15;6.38;;;4.32;;
38034;SDS011;23841;48.524;1.342;2023-04-30T09:44:42;8.13;;;4.82;;
38034;SDS011;23841;48.524;1.342;2023-04-30T09:47:11;7.35;;;5.07;;
38034;SDS011;23841;48.524;1.342;2023-04-30T09:49:39;8.13;;;5.20;;
38034;SDS011;23841;48.524;1.342;2023-04-30T09:52:09;8.57;;;5.15;;
38034;SDS011;23841;48.524;1.342;2023-04-30T09:54:35;8.48;;;5.32;;
38034;SDS011;23841;48.524;1.342;2023-04-30T09:57:01;8.07;;;5.15;;
38034;SDS011;23841;48.524;1.342;2023-04-30T09:59:30;6.93;;;4.68;;
38034;SDS011;23841;48.524;1.342;2023-04-30T10:01:59;8.30;;;5.28;;
38034;SDS011;23841;48.524;1.342;2023-04-30T10:04:29;9.65;;;5.50;;
38034;SDS011;23841;48.524;1.342;2023-04-30T10:07:14;8.50;;;4.80;;
38034;SDS011;23841;48.524;1.342;2023-04-30T10:09:47;8.23;;;4.90;;
38034;SDS011;23841;48.524;1.342;2023-04-30T10:12:15;7.18;;;4.63;;
38034;SDS011;23841;48.524;1.342;2023-04-30T10:14:50;7.53;;;3.95;;
38034;SDS011;23841;48.524;1.342;2023-04-30T10:17:20;6.05;;;4.20;;
38034;SDS011;23841;48.524;1.342;2023-04-30T10:19:48;8.10;;;4.57;;
38034;SDS011;23841;48.524;1.342;2023-04-30T10:22:21;7.25;;;4.40;;
38034;SDS011;23841;48.524;1.342;2023-04-30T10:24:48;8.40;;;5.13;;
38034;SDS011;23841;48.524;1.342;2023-04-30T10:27:16;6.45;;;3.78;;
38034;SDS011;23841;48.524;1.342;2023-04-30T10:29:42;6.88;;;4.43;;
38034;SDS011;23841;48.524;1.342;2023-04-30T10:32:09;7.18;;;4.53;;
38034;SDS011;23841;48.524;1.342;2023-04-30T10:37:17;6.70;;;4.32;;
38034;SDS011;23841;48.524;1.342;2023-04-30T10:39:49;7.43;;;3.83;;
38034;SDS011;23841;48.524;1.342;2023-04-30T10:42:16;5.53;;;3.92;;
38034;SDS011;23841;48.524;1.342;2023-04-30T10:44:41;7.03;;;4.53;;
38034;SDS011;23841;48.524;1.342;2023-04-30T10:47:10;5.97;;;4.07;;
38034;SDS011;23841;48.524;1.342;2023-04-30T10:49:36;7.63;;;4.45;;
38034;SDS011;23841;48.524;1.342;2023-04-30T10:52:02;5.78;;;4.18;;
38034;SDS011;23841;48.524;1.342;2023-04-30T10:54:32;6.53;;;4.00;;
38034;SDS011;23841;48.524;1.342;2023-04-30T10:57:12;7.80;;;4.18;;
38034;SDS011;23841;48.524;1.342;2023-04-30T11:02:38;6.60;;;3.88;;
38034;SDS011;23841;48.524;1.342;2023-04-30T11:07:31;6.18;;;3.88;;
38034;SDS011;23841;48.524;1.342;2023-04-30T11:09:57;8.00;;;4.30;;
38034;SDS011;23841;48.524;1.342;2023-04-30T11:12:24;5.70;;;3.70;;
38034;SDS011;23841;48.524;1.342;2023-04-30T11:15:32;5.88;;;3.63;;
38034;SDS011;23841;48.524;1.342;2023-04-30T11:17:50;6.63;;;3.90;;
38034;SDS011;23841;48.524;1.342;2023-04-30T11:20:19;5.93;;;3.45;;
38034;SDS011;23841;48.524;1.342;2023-04-30T11:22:46;5.30;;;3.45;;
38034;SDS011;23841;48.524;1.342;2023-04-30T11:25:12;6.72;;;4.00;;
38034;SDS011;23841;48.524;1.342;2023-04-30T11:27:43;6.70;;;3.95;;
38034;SDS011;23841;48.524;1.342;2023-04-30T11:32:42;5.53;;;4.15;;
38034;SDS011;23841;48.524;1.342;2023-04-30T11:35:11;5.22;;;3.50;;
38034;SDS011;23841;48.524;1.342;2023-04-30T11:37:42;6.55;;;4.55;;
38034;SDS011;23841;48.524;1.342;2023-04-30T11:40:09;7.32;;;3.70;;
38034;SDS011;23841;48.524;1.342;2023-04-30T11:42:36;7.43;;;3.58;;
38034;SDS011;23841;48.524;1.342;2023-04-30T11:50:08;6.10;;;3.88;;
38034;SDS011;23841;48.524;1.342;2023-04-30T11:52:35;7.50;;;4.03;;
38034;SDS011;23841;48.524;1.342;2023-04-30T11:55:20;6.13;;;3.80;;
38034;SDS011;23841;48.524;1.342;2023-04-30T11:57:51;6.93;;;3.50;;
38034;SDS011;23841;48.524;1.342;2023-04-30T12:00:20;5.93;;;3.88;;
38034;SDS011;23841;48.524;1.342;2023-04-30T12:02:54;5.95;;;3.67;;
38034;SDS011;23841;48.524;1.342;2023-04-30T12:05:21;6.40;;;4.35;;
38034;SDS011;23841;48.524;1.342;2023-04-30T12:07:49;6.25;;;4.35;;
38034;SDS011;23841;48.524;1.342;2023-04-30T12:10:20;7.47;;;5.10;;
38034;SDS011;23841;48.524;1.342;2023-04-30T12:12:46;5.80;;;3.55;;
38034;SDS011;23841;48.524;1.342;2023-04-30T12:15:18;6.75;;;3.70;;
38034;SDS011;23841;48.524;1.342;2023-04-30T12:17:47;6.38;;;3.97;;
38034;SDS011;23841;48.524;1.342;2023-04-30T12:20:13;6.10;;;4.00;;
38034;SDS011;23841;48.524;1.342;2023-04-30T12:22:42;7.20;;;4.45;;
38034;SDS011;23841;48.524;1.342;2023-04-30T12:25:13;7.25;;;4.55;;
38034;SDS011;23841;48.524;1.342;2023-04-30T12:27:44;6.15;;;4.30;;
38034;SDS011;23841;48.524;1.342;2023-04-30T12:30:11;6.30;;;3.85;;
38034;SDS011;23841;48.524;1.342;2023-04-30T12:35:08;5.60;;;3.92;;
38034;SDS011;23841;48.524;1.342;2023-04-30T12:37:40;6.55;;;3.50;;
38034;SDS011;23841;48.524;1.342;2023-04-30T12:40:07;7.07;;;3.90;;
38034;SDS011;23841;48.524;1.342;2023-04-30T12:42:34;6.10;;;4.20;;
38034;SDS011;23841;48.524;1.342;2023-04-30T12:44:59;6.25;;;3.70;;
38034;SDS011;23841;48.524;1.342;2023-04-30T12:47:25;5.45;;;3.75;;
38034;SDS011;23841;48.524;1.342;2023-04-30T12:49:51;7.15;;;3.75;;
38034;SDS011;23841;48.524;1.342;2023-04-30T12:52:17;6.15;;;3.60;;
38034;SDS011;23841;48.524;1.342;2023-04-30T12:54:49;4.57;;;3.17;;
38034;SDS011;23841;48.524;1.342;2023-04-30T12:57:14;5.30;;;3.65;;
38034;SDS011;23841;48.524;1.342;2023-04-30T13:02:17;6.95;;;3.53;;
38034;SDS011;23841;48.524;1.342;2023-04-30T13:04:48;6.10;;;3.28;;
38034;SDS011;23841;48.524;1.342;2023-04-30T13:07:13;6.65;;;3.67;;
38034;SDS011;23841;48.524;1.342;2023-04-30T13:09:39;6.43;;;3.90;;
38034;SDS011;23841;48.524;1.342;2023-04-30T13:12:04;5.43;;;3.38;;
38034;SDS011;23841;48.524;1.342;2023-04-30T13:14:30;4.85;;;3.47;;
38034;SDS011;23841;48.524;1.342;2023-04-30T13:16:58;5.32;;;3.30;;
38034;SDS011;23841;48.524;1.342;2023-04-30T13:19:23;6.05;;;3.60;;
38034;SDS011;23841;48.524;1.342;2023-04-30T13:21:49;5.35;;;3.38;;
38034;SDS011;23841;48.524;1.342;2023-04-30T13:24:14;5.88;;;3.58;;
38034;SDS011;23841;48.524;1.342;2023-04-30T13:26:42;5.05;;;3.45;;
38034;SDS011;23841;48.524;1.342;2023-04-30T13:29:07;4.30;;;2.90;;
38034;SDS011;23841;48.524;1.342;2023-04-30T13:31:34;4.85;;;3.35;;
38034;SDS011;23841;48.524;1.342;2023-04-30T13:34:00;4.80;;;3.10;;
38034;SDS011;23841;48.524;1.342;2023-04-30T13:36:25;5.38;;;3.50;;
38034;SDS011;23841;48.524;1.342;2023-04-30T13:38:51;5.07;;;3.25;;
38034;SDS011;23841;48.524;1.342;2023-04-30T13:41:17;5.22;;;3.67;;
38034;SDS011;23841;48.524;1.342;2023-04-30T13:43:42;5.13;;;3.30;;
38034;SDS011;23841;48.524;1.342;2023-04-30T13:46:10;3.90;;;2.85;;
38034;SDS011;23841;48.524;1.342;2023-04-30T13:48:36;4.60;;;3.17;;
38034;SDS011;23841;48.524;1.342;2023-04-30T13:51:01;3.95;;;2.92;;
38034;SDS011;23841;48.524;1.342;2023-04-30T13:53:27;5.20;;;3.45;;
38034;SDS011;23841;48.524;1.342;2023-04-30T13:55:52;4.70;;;3.17;;
38034;SDS011;23841;48.524;1.342;2023-04-30T13:58:18;4.82;;;3.30;;
38034;SDS011;23841;48.524;1.342;2023-04-30T14:00:43;4.45;;;3.00;;
38034;SDS011;23841;48.524;1.342;2023-04-30T14:03:09;4.75;;;3.10;;
38034;SDS011;23841;48.524;1.342;2023-04-30T14:05:35;4.80;;;3.10;;
38034;SDS011;23841;48.524;1.342;2023-04-30T14:08:01;4.22;;;2.70;;
38034;SDS011;23841;48.524;1.342;2023-04-30T14:10:27;4.10;;;2.92;;
38034;SDS011;23841;48.524;1.342;2023-04-30T14:12:52;5.05;;;3.13;;
38034;SDS011;23841;48.524;1.342;2023-04-30T14:15:18;4.57;;;3.00;;
38034;SDS011;23841;48.524;1.342;2023-04-30T14:17:43;5.93;;;3.30;;
38034;SDS011;23841;48.524;1.342;2023-04-30T14:20:10;4.90;;;3.28;;
38034;SDS011;23841;48.524;1.342;2023-04-30T14:22:36;4.13;;;2.95;;
38034;SDS011;23841;48.524;1.342;2023-04-30T14:25:05;4.18;;;2.95;;
38034;SDS011;23841;48.524;1.342;2023-04-30T14:27:31;4.55;;;2.75;;
38034;SDS011;23841;48.524;1.342;2023-04-30T14:29:57;5.00;;;3.40;;
38034;SDS011;23841;48.524;1.342;2023-04-30T14:32:25;5.43;;;3.10;;
38034;SDS011;23841;48.524;1.342;2023-04-30T14:34:51;4.82;;;3.05;;
38034;SDS011;23841;48.524;1.342;2023-04-30T14:37:17;4.20;;;2.67;;
38034;SDS011;23841;48.524;1.342;2023-04-30T14:39:43;4.18;;;2.80;;
38034;SDS011;23841;48.524;1.342;2023-04-30T14:42:09;3.92;;;2.72;;
38034;SDS011;23841;48.524;1.342;2023-04-30T14:44:35;5.38;;;3.03;;
38034;SDS011;23841;48.524;1.342;2023-04-30T14:47:02;4.38;;;3.20;;
38034;SDS011;23841;48.524;1.342;2023-04-30T14:49:28;4.50;;;3.17;;
38034;SDS011;23841;48.524;1.342;2023-04-30T14:51:54;4.68;;;3.10;;
38034;SDS011;23841;48.524;1.342;2023-04-30T14:54:21;5.40;;;3.33;;
38034;SDS011;23841;48.524;1.342;2023-04-30T14:56:47;4.43;;;3.25;;
38034;SDS011;23841;48.524;1.342;2023-04-30T14:59:13;4.07;;;3.10;;
38034;SDS011;23841;48.524;1.342;2023-04-30T15:01:39;4.80;;;3.13;;
38034;SDS011;23841;48.524;1.342;2023-04-30T15:04:04;4.10;;;2.83;;
38034;SDS011;23841;48.524;1.342;2023-04-30T15:06:30;4.43;;;2.92;;
38034;SDS011;23841;48.524;1.342;2023-04-30T15:08:57;5.10;;;2.80;;
38034;SDS011;23841;48.524;1.342;2023-04-30T15:11:23;5.10;;;3.00;;
38034;SDS011;23841;48.524;1.342;2023-04-30T15:13:49;4.22;;;2.80;;
38034;SDS011;23841;48.524;1.342;2023-04-30T15:16:15;5.25;;;3.10;;
38034;SDS011;23841;48.524;1.342;2023-04-30T15:18:41;4.35;;;2.95;;
38034;SDS011;23841;48.524;1.342;2023-04-30T15:21:08;5.15;;;3.08;;